Time;durP1;ratioP1;P1;durP2;ratioP2;P2;SDS_P1;SDS_P2;PMS_P1;PMS_P2;Temp;Humidity;BMP_temperature;BMP_pressure;BME280_temperature;BME280_humidity;BME280_pressure;Samples;Min_cycle;Max_cycle;Signal;HPM_P1;HPM_P2
2023/01/13 00:00:15;;;;;;;3.90;2.00;;;9.80;99.90;;;;;;5140463;27;20461;-63
2023/01/13 00:02:44;;;;;;;1.97;1.63;;;9.80;99.90;;;;;;5140351;27;20490;-65
2023/01/13 00:05:11;;;;;;;4.00;1.90;;;9.90;99.90;;;;;;5139802;27;20459;-65
2023/01/13 00:07:39;;;;;;;3.03;1.40;;;9.90;99.90;;;;;;5139385;27;20930;-66
2023/01/13 00:10:08;;;;;;;2.40;1.60;;;9.90;99.90;;;;;;5140012;27;20466;-69
2023/01/13 00:12:38;;;;;;;2.23;1.50;;;9.80;99.90;;;;;;5140478;27;20477;-65
2023/01/13 00:15:06;;;;;;;2.03;1.50;;;9.80;99.90;;;;;;5139890;27;20465;-64
2023/01/13 00:17:33;;;;;;;2.00;1.77;;;9.80;99.90;;;;;;5140518;27;20455;-64
2023/01/13 00:20:02;;;;;;;1.93;1.30;;;9.80;99.90;;;;;;5139619;27;20455;-63
2023/01/13 00:22:32;;;;;;;2.30;1.63;;;9.80;99.90;;;;;;5139859;27;20498;-64
2023/01/13 00:25:00;;;;;;;2.23;1.43;;;9.80;99.90;;;;;;5139702;27;20465;-63
2023/01/13 00:27:27;;;;;;;2.40;1.50;;;9.80;99.90;;;;;;5139874;27;20772;-63
2023/01/13 00:29:54;;;;;;;2.10;1.60;;;9.70;99.90;;;;;;5139806;27;20487;-63
2023/01/13 00:32:21;;;;;;;2.03;1.40;;;9.70;99.90;;;;;;5139878;27;20463;-63
2023/01/13 00:34:48;;;;;;;3.60;1.63;;;9.70;99.90;;;;;;5139922;27;20885;-63
2023/01/13 00:37:17;;;;;;;3.20;1.60;;;9.60;99.90;;;;;;5139904;27;20469;-64
2023/01/13 00:39:45;;;;;;;3.70;1.67;;;9.60;99.90;;;;;;5139392;27;20496;-62
2023/01/13 00:44:57;;;;;;;2.70;1.47;;;9.60;99.90;;;;;;5139115;27;20571;-63
2023/01/13 00:47:24;;;;;;;4.33;1.40;;;9.60;99.90;;;;;;5139588;27;20462;-63
2023/01/13 00:49:51;;;;;;;2.87;1.57;;;9.60;99.90;;;;;;5139243;27;20459;-63
2023/01/13 00:52:20;;;;;;;3.73;1.70;;;9.60;99.90;;;;;;5139365;27;20545;-62
2023/01/13 00:54:47;;;;;;;3.50;2.23;;;9.60;99.90;;;;;;5139715;27;20782;-63
2023/01/13 00:57:14;;;;;;;2.33;1.53;;;9.60;99.90;;;;;;5139720;27;20557;-62
2023/01/13 00:59:42;;;;;;;2.03;1.40;;;9.60;99.90;;;;;;5139327;27;20918;-62
2023/01/13 01:02:09;;;;;;;2.90;1.67;;;9.50;99.90;;;;;;5139181;27;20873;-62
2023/01/13 01:04:36;;;;;;;3.00;1.83;;;9.50;99.90;;;;;;5139537;27;20466;-62
2023/01/13 01:07:03;;;;;;;2.90;1.50;;;9.50;99.90;;;;;;5139485;27;20458;-63
2023/01/13 01:09:33;;;;;;;5.40;1.73;;;9.50;99.90;;;;;;5139854;27;20459;-62
2023/01/13 01:12:01;;;;;;;3.50;1.60;;;9.50;99.90;;;;;;5138962;27;20903;-62
2023/01/13 01:14:28;;;;;;;6.60;2.13;;;9.40;99.90;;;;;;5139087;27;20433;-62
2023/01/13 01:16:55;;;;;;;4.70;2.57;;;9.40;99.90;;;;;;5139625;27;20476;-63
2023/01/13 01:19:23;;;;;;;5.50;1.77;;;9.40;99.90;;;;;;5139333;27;20455;-64
2023/01/13 01:21:50;;;;;;;4.90;2.07;;;9.40;99.90;;;;;;5138075;27;20486;-62
2023/01/13 01:24:17;;;;;;;4.10;1.80;;;9.40;99.90;;;;;;5138806;27;20462;-62
2023/01/13 01:26:45;;;;;;;2.47;1.43;;;9.40;99.90;;;;;;5138072;27;20746;-62
2023/01/13 01:29:14;;;;;;;4.83;2.10;;;9.40;99.90;;;;;;5138252;27;20462;-61
2023/01/13 01:31:41;;;;;;;3.80;1.70;;;9.40;99.90;;;;;;5138575;27;20459;-63
2023/01/13 01:34:08;;;;;;;5.63;1.93;;;9.30;99.90;;;;;;5138902;27;20474;-62
2023/01/13 01:36:35;;;;;;;8.00;2.30;;;9.30;99.90;;;;;;5138704;27;20455;-62
2023/01/13 01:39:03;;;;;;;3.00;1.70;;;9.20;99.90;;;;;;5138762;27;20462;-62
2023/01/13 01:41:33;;;;;;;3.67;1.50;;;9.20;99.90;;;;;;5138708;27;20461;-61
2023/01/13 01:44:06;;;;;;;3.67;1.40;;;9.20;99.90;;;;;;5138603;27;20771;-62
2023/01/13 01:46:36;;;;;;;5.10;1.93;;;9.20;99.90;;;;;;5138359;27;20918;-62
2023/01/13 01:49:10;;;;;;;2.50;1.73;;;9.20;99.90;;;;;;5138550;27;20466;-62
2023/01/13 01:51:42;;;;;;;3.23;1.80;;;9.20;99.90;;;;;;5138065;27;20463;-63
2023/01/13 01:54:13;;;;;;;4.97;2.07;;;9.20;99.90;;;;;;5138372;27;20753;-62
2023/01/13 01:56:42;;;;;;;4.53;2.43;;;9.20;99.90;;;;;;5138772;27;20459;-63
2023/01/13 01:59:11;;;;;;;6.00;2.30;;;9.20;99.90;;;;;;5138125;27;20764;-62
2023/01/13 02:01:40;;;;;;;5.80;1.80;;;9.20;99.90;;;;;;5138217;27;20739;-64
2023/01/13 02:04:14;;;;;;;4.13;1.63;;;9.20;99.90;;;;;;5137334;27;20485;-64
2023/01/13 02:06:42;;;;;;;4.23;1.60;;;9.10;99.90;;;;;;5137752;27;20476;-65
2023/01/13 02:09:10;;;;;;;3.47;1.90;;;8.90;99.90;;;;;;5138602;27;20491;-63
2023/01/13 02:14:33;;;;;;;3.30;2.00;;;8.80;99.90;;;;;;5089406;27;20472;-63
2023/01/13 02:17:23;;;;;;;8.73;2.20;;;8.80;99.90;;;;;;5138003;28;20966;-62
2023/01/13 02:20:29;;;;;;;5.07;1.80;;;8.80;99.90;;;;;;5137477;27;20461;-62
2023/01/13 02:26:42;;;;;;;3.87;2.20;;;8.70;99.90;;;;;;5134290;27;20453;-62
2023/01/13 02:32:12;;;;;;;6.87;2.10;;;8.60;99.90;;;;;;5137622;28;20433;-62
2023/01/13 02:34:42;;;;;;;4.73;1.67;;;8.60;99.90;;;;;;5138233;28;20501;-62
2023/01/13 02:37:16;;;;;;;5.30;1.70;;;8.60;99.90;;;;;;5138649;28;20526;-61
2023/01/13 02:39:54;;;;;;;4.53;2.10;;;8.50;1.00;;;;;;5137768;28;20902;-62
2023/01/13 02:45:16;;;;;;;4.50;1.47;;;8.50;99.90;;;;;;5137796;28;20430;-62
2023/01/13 02:47:48;;;;;;;3.77;1.57;;;8.40;99.90;;;;;;5137810;28;20867;-62
2023/01/13 02:50:18;;;;;;;6.23;1.60;;;8.40;1.00;;;;;;5137532;28;20463;-62
2023/01/13 02:52:49;;;;;;;6.93;2.00;;;8.40;1.00;;;;;;5137935;28;20724;-62
2023/01/13 02:55:20;;;;;;;2.63;2.13;;;8.40;1.00;;;;;;5137912;28;20565;-62
2023/01/13 02:57:49;;;;;;;3.17;1.87;;;8.40;1.00;;;;;;5137606;28;20898;-62
2023/01/13 03:00:18;;;;;;;5.77;2.17;;;8.40;1.00;;;;;;5137815;28;20494;-62
2023/01/13 03:02:48;;;;;;;5.97;1.93;;;8.30;1.00;;;;;;5137704;27;20492;-63
2023/01/13 03:05:16;;;;;;;5.50;2.13;;;8.20;1.00;;;;;;5137745;28;20494;-62
2023/01/13 03:08:14;;;;;;;7.53;1.90;;;8.10;1.00;;;;;;5137641;28;20462;-62
2023/01/13 03:10:54;;;;;;;6.83;2.40;;;8.10;1.00;;;;;;5089639;27;20441;-62
2023/01/13 03:13:33;;;;;;;6.70;2.70;;;8.00;1.00;;;;;;5137773;28;20454;-62
2023/01/13 03:16:08;;;;;;;6.30;2.23;;;8.00;1.00;;;;;;5140798;27;20458;-62
2023/01/13 03:18:45;;;;;;;6.27;2.57;;;8.00;1.00;;;;;;5141126;27;20458;-62
2023/01/13 03:21:19;;;;;;;9.80;2.47;;;7.80;1.00;;;;;;5140714;27;21008;-62
2023/01/13 03:23:51;;;;;;;6.50;2.80;;;7.80;1.00;;;;;;5141344;27;20581;-62
2023/01/13 03:26:28;;;;;;;8.03;3.47;;;7.80;1.00;;;;;;5141057;27;20462;-62
2023/01/13 03:29:02;;;;;;;7.10;3.50;;;7.80;1.00;;;;;;5140961;27;20458;-62
2023/01/13 03:31:34;;;;;;;6.50;3.03;;;7.80;1.00;;;;;;5141297;27;20867;-62
2023/01/13 03:34:07;;;;;;;8.23;3.80;;;7.80;1.00;;;;;;5140768;27;20906;-62
2023/01/13 03:36:38;;;;;;;5.30;3.17;;;7.70;1.00;;;;;;5140833;27;20454;-62
2023/01/13 03:39:10;;;;;;;5.90;4.33;;;7.80;1.00;;;;;;5141138;27;20905;-62
2023/01/13 03:41:43;;;;;;;6.03;2.90;;;7.70;1.00;;;;;;5141051;27;20959;-62
2023/01/13 03:44:23;;;;;;;4.97;1.90;;;7.70;1.00;;;;;;5140619;27;20469;-62
2023/01/13 03:46:59;;;;;;;5.90;2.00;;;7.70;1.00;;;;;;5141454;27;20947;-62
2023/01/13 03:49:32;;;;;;;7.37;2.23;;;7.60;1.00;;;;;;5141205;27;20466;-62
2023/01/13 03:52:05;;;;;;;3.90;1.90;;;7.50;1.00;;;;;;5140767;27;20466;-62
2023/01/13 03:54:36;;;;;;;4.00;2.00;;;7.60;1.00;;;;;;5140710;27;20461;-62
2023/01/13 03:57:07;;;;;;;7.83;2.27;;;7.60;1.00;;;;;;5140891;27;20762;-62
2023/01/13 03:59:40;;;;;;;7.03;2.30;;;7.60;1.00;;;;;;5140423;27;20459;-62
2023/01/13 04:02:10;;;;;;;8.27;2.30;;;7.50;1.00;;;;;;5140772;27;20462;-62
2023/01/13 04:04:44;;;;;;;4.90;2.13;;;7.50;1.00;;;;;;5140289;27;20473;-62
2023/01/13 04:07:18;;;;;;;5.73;2.40;;;7.50;1.00;;;;;;5139800;27;20456;-61
2023/01/13 04:09:50;;;;;;;5.33;2.70;;;7.50;1.00;;;;;;5140080;27;20464;-63
2023/01/13 04:12:24;;;;;;;5.37;2.20;;;7.50;1.00;;;;;;5140261;27;20454;-64
2023/01/13 04:14:53;;;;;;;6.13;2.97;;;7.50;1.00;;;;;;5140938;27;20457;-61
2023/01/13 04:17:20;;;;;;;5.37;2.53;;;7.50;1.00;;;;;;5140671;27;20458;-62
2023/01/13 04:19:49;;;;;;;3.40;2.27;;;7.50;1.00;;;;;;5140156;27;20451;-62
2023/01/13 04:22:17;;;;;;;6.70;2.60;;;7.50;1.00;;;;;;5139950;27;20435;-62
2023/01/13 04:24:44;;;;;;;8.87;3.27;;;7.50;1.00;;;;;;5140461;27;20459;-62
2023/01/13 04:27:11;;;;;;;7.13;2.80;;;7.40;1.00;;;;;;5139361;27;20879;-62
2023/01/13 04:29:38;;;;;;;9.73;3.23;;;7.40;1.00;;;;;;5139697;27;20898;-62
2023/01/13 04:32:05;;;;;;;11.70;2.90;;;7.40;1.00;;;;;;5139654;27;20454;-62
2023/01/13 04:34:32;;;;;;;3.97;2.20;;;7.30;1.00;;;;;;5139771;27;20425;-64
2023/01/13 04:37:05;;;;;;;7.37;2.30;;;7.30;1.00;;;;;;5139600;27;20454;-64
2023/01/13 04:39:37;;;;;;;12.77;2.93;;;7.20;3.00;;;;;;5140267;27;20490;-64
2023/01/13 04:42:07;;;;;;;6.20;3.10;;;7.20;18.40;;;;;;5138490;27;20459;-65
2023/01/13 04:44:47;;;;;;;12.27;2.97;;;7.30;1.60;;;;;;5139300;27;20494;-64
2023/01/13 04:47:18;;;;;;;10.20;2.80;;;7.30;1.00;;;;;;5139820;27;20463;-64
2023/01/13 04:49:46;;;;;;;9.20;2.60;;;7.30;1.00;;;;;;5139519;27;20508;-64
2023/01/13 04:52:15;;;;;;;6.23;2.30;;;7.40;1.00;;;;;;5139566;27;20466;-63
2023/01/13 04:54:42;;;;;;;7.53;3.33;;;7.30;1.00;;;;;;5139796;27;20429;-62
2023/01/13 04:57:09;;;;;;;9.03;2.83;;;7.30;1.00;;;;;;5139293;27;20466;-61
2023/01/13 04:59:36;;;;;;;6.93;2.43;;;7.30;1.00;;;;;;5139437;27;20884;-62
2023/01/13 05:02:03;;;;;;;5.47;3.27;;;7.30;1.00;;;;;;5139819;27;20458;-61
2023/01/13 05:04:30;;;;;;;10.60;3.57;;;7.40;1.00;;;;;;5139727;27;20751;-61
2023/01/13 05:06:58;;;;;;;7.57;2.53;;;7.40;1.00;;;;;;5139194;27;20552;-60
2023/01/13 05:09:26;;;;;;;8.17;2.77;;;7.40;1.00;;;;;;5139460;27;20458;-62
2023/01/13 05:17:24;;;;;;;8.10;3.60;;;7.50;1.00;;;;;;5138756;27;20446;-62
2023/01/13 05:19:52;;;;;;;12.50;3.40;;;7.50;1.00;;;;;;5139192;27;20739;-62
2023/01/13 05:25:24;;;;;;;12.83;3.30;;;7.60;11.60;;;;;;5138616;27;20479;-63
2023/01/13 05:27:52;;;;;;;16.70;3.47;;;7.50;45.30;;;;;;5139056;27;20466;-61
2023/01/13 05:30:21;;;;;;;16.23;4.30;;;7.50;78.80;;;;;;5137516;27;20531;-61
2023/01/13 05:32:48;;;;;;;16.60;2.83;;;7.50;90.30;;;;;;5138846;27;20461;-62
2023/01/13 05:35:16;;;;;;;11.37;2.93;;;7.50;18.10;;;;;;5137788;27;20880;-61
2023/01/13 05:37:43;;;;;;;12.30;3.57;;;7.50;27.70;;;;;;5138491;27;20461;-62
2023/01/13 05:43:23;;;;;;;14.07;3.43;;;7.40;69.70;;;;;;5137168;27;20445;-61
2023/01/13 05:45:53;;;;;;;15.40;2.93;;;7.40;99.90;;;;;;5138254;27;20492;-61
2023/01/13 05:48:22;;;;;;;8.37;3.07;;;7.40;56.20;;;;;;5137651;27;20469;-61
2023/01/13 05:50:49;;;;;;;13.83;3.30;;;7.40;99.00;;;;;;5137892;27;20458;-62
2023/01/13 05:53:17;;;;;;;9.20;3.33;;;7.50;55.30;;;;;;5138293;27;20477;-61
2023/01/13 05:55:46;;;;;;;13.30;3.63;;;7.40;92.60;;;;;;5138590;27;20469;-62
2023/01/13 05:58:15;;;;;;;17.90;3.90;;;7.40;91.40;;;;;;5138088;27;20462;-60
2023/01/13 06:00:42;;;;;;;13.40;3.70;;;7.40;58.40;;;;;;5138117;27;20498;-61
2023/01/13 06:03:10;;;;;;;12.57;3.83;;;7.40;81.80;;;;;;5137184;27;20954;-61
2023/01/13 06:05:37;;;;;;;12.60;3.27;;;7.40;80.90;;;;;;5137769;27;20556;-62
2023/01/13 06:08:07;;;;;;;9.17;4.20;;;7.40;67.30;;;;;;5138439;27;20443;-61
2023/01/13 06:10:34;;;;;;;9.20;3.50;;;7.40;15.10;;;;;;5137816;27;20454;-62
2023/01/13 06:13:04;;;;;;;12.50;3.43;;;7.40;1.00;;;;;;5138083;27;20434;-61
2023/01/13 06:15:31;;;;;;;8.77;2.80;;;7.40;1.00;;;;;;5138052;27;20494;-59
2023/01/13 06:17:58;;;;;;;9.33;2.83;;;7.40;1.00;;;;;;5138075;28;20752;-60
2023/01/13 06:20:26;;;;;;;16.33;3.20;;;7.40;1.00;;;;;;5138545;28;20458;-61
2023/01/13 06:22:54;;;;;;;9.50;3.00;;;7.30;1.00;;;;;;5136833;28;20907;-62
2023/01/13 06:25:34;;;;;;;12.30;3.10;;;7.40;1.00;;;;;;5135666;28;20553;-60
2023/01/13 06:28:01;;;;;;;7.27;3.20;;;7.40;1.00;;;;;;5136429;28;20466;-60
2023/01/13 06:30:32;;;;;;;8.63;2.97;;;7.40;1.00;;;;;;5136251;28;20497;-60
2023/01/13 06:33:01;;;;;;;12.17;3.53;;;7.40;1.00;;;;;;5136405;28;20470;-59
2023/01/13 06:35:32;;;;;;;12.53;2.67;;;7.40;1.00;;;;;;5136201;28;20465;-63
2023/01/13 06:38:02;;;;;;;14.43;3.70;;;7.50;1.00;;;;;;5136907;27;20556;-60
2023/01/13 06:40:30;;;;;;;6.37;2.40;;;7.50;1.00;;;;;;5127021;28;20471;-63
2023/01/13 06:43:15;;;;;;;4.90;2.90;;;7.40;1.00;;;;;;5117896;28;20551;-62
2023/01/13 06:45:46;;;;;;;8.87;2.90;;;7.40;1.00;;;;;;5117196;28;20432;-61
2023/01/13 06:48:14;;;;;;;8.13;2.70;;;7.40;1.00;;;;;;5115549;28;20470;-60
2023/01/13 06:50:41;;;;;;;5.70;2.47;;;7.40;1.00;;;;;;5117571;28;20461;-61
2023/01/13 06:53:09;;;;;;;12.40;3.00;;;7.40;1.00;;;;;;5129409;27;20517;-62
2023/01/13 06:55:36;;;;;;;5.60;2.87;;;7.40;1.00;;;;;;5138624;27;20429;-61
2023/01/13 06:58:03;;;;;;;6.80;2.50;;;7.40;1.00;;;;;;5140153;27;20466;-62
2023/01/13 07:00:31;;;;;;;13.17;3.80;;;7.30;1.00;;;;;;5140029;27;20460;-63
2023/01/13 07:03:08;;;;;;;10.40;2.67;;;7.30;1.00;;;;;;5141346;27;20458;-62
2023/01/13 07:05:35;;;;;;;11.60;2.77;;;7.20;1.00;;;;;;5141741;27;20747;-63
2023/01/13 07:08:02;;;;;;;8.60;2.60;;;7.20;1.00;;;;;;5141686;27;20894;-64
2023/01/13 07:10:30;;;;;;;7.73;2.70;;;7.20;1.00;;;;;;5141546;27;20926;-59
2023/01/13 07:15:54;;;;;;;8.90;2.87;;;7.10;1.00;;;;;;5141209;27;20730;-62
2023/01/13 07:18:23;;;;;;;9.67;4.40;;;7.10;1.00;;;;;;5141690;27;20462;-62
2023/01/13 07:20:54;;;;;;;8.03;2.63;;;7.20;1.00;;;;;;5140903;27;20454;-62
2023/01/13 07:23:21;;;;;;;8.07;2.93;;;7.10;1.00;;;;;;5141246;27;20760;-62
2023/01/13 07:25:51;;;;;;;7.10;2.70;;;7.10;1.00;;;;;;5141085;27;20470;-63
2023/01/13 07:28:18;;;;;;;9.23;2.90;;;7.10;1.00;;;;;;5140952;27;20466;-62
2023/01/13 07:30:46;;;;;;;11.47;3.03;;;7.20;1.00;;;;;;5140259;27;20762;-63
2023/01/13 07:33:13;;;;;;;6.30;2.83;;;7.20;1.00;;;;;;5140761;27;20433;-63
2023/01/13 07:35:41;;;;;;;13.90;3.07;;;7.20;1.00;;;;;;5141278;27;20460;-63
2023/01/13 07:38:08;;;;;;;7.17;2.70;;;7.20;1.00;;;;;;5140716;27;20629;-63
2023/01/13 07:40:36;;;;;;;8.80;2.60;;;7.20;1.00;;;;;;5140563;27;20458;-63
2023/01/13 07:45:48;;;;;;;7.63;2.60;;;7.20;1.00;;;;;;5140013;27;20416;-63
2023/01/13 07:48:15;;;;;;;10.17;3.60;;;7.20;1.00;;;;;;5138691;27;20537;-63
2023/01/13 07:50:43;;;;;;;9.43;3.47;;;7.20;1.00;;;;;;5139101;27;20454;-62
2023/01/13 07:53:11;;;;;;;8.20;2.60;;;7.20;1.00;;;;;;5139829;27;20451;-61
2023/01/13 07:55:42;;;;;;;8.50;5.23;;;7.20;1.00;;;;;;5139561;27;20425;-62
2023/01/13 07:58:09;;;;;;;10.00;4.00;;;7.20;1.00;;;;;;5139514;27;20457;-63
2023/01/13 08:00:36;;;;;;;8.27;3.03;;;7.20;1.00;;;;;;5139635;27;20459;-63
2023/01/13 08:03:03;;;;;;;8.47;2.63;;;7.20;1.00;;;;;;5139662;27;20435;-62
2023/01/13 08:05:31;;;;;;;8.73;3.07;;;7.20;1.00;;;;;;5139241;27;20493;-63
2023/01/13 08:07:59;;;;;;;8.23;2.33;;;7.20;1.00;;;;;;5139739;27;20541;-62
2023/01/13 08:10:26;;;;;;;6.67;2.40;;;7.20;1.00;;;;;;5139628;27;20954;-64
2023/01/13 08:15:38;;;;;;;7.53;2.67;;;7.30;1.00;;;;;;5139229;27;20894;-65
2023/01/13 08:18:05;;;;;;;9.93;2.87;;;7.30;1.00;;;;;;5139391;27;20462;-65
2023/01/13 08:20:33;;;;;;;9.03;3.00;;;7.30;1.00;;;;;;5138329;27;20883;-65
2023/01/13 08:23:02;;;;;;;5.23;2.70;;;7.30;1.00;;;;;;5138249;27;20859;-64
2023/01/13 08:25:30;;;;;;;8.50;2.53;;;7.40;1.00;;;;;;5137101;27;20460;-64
2023/01/13 08:27:59;;;;;;;8.33;3.77;;;7.40;1.00;;;;;;5119713;27;20467;-65
2023/01/13 08:30:26;;;;;;;9.53;2.93;;;7.40;1.00;;;;;;5134957;27;20507;-65
2023/01/13 08:32:54;;;;;;;8.73;3.37;;;7.40;1.00;;;;;;5136695;27;20454;-64
2023/01/13 08:35:21;;;;;;;6.10;3.30;;;7.40;1.00;;;;;;5135943;27;20458;-64
2023/01/13 08:37:49;;;;;;;8.87;3.00;;;7.40;1.00;;;;;;5135838;27;20810;-63
2023/01/13 08:40:19;;;;;;;9.80;2.80;;;7.50;1.00;;;;;;5128054;27;20470;-64
2023/01/13 08:42:47;;;;;;;7.13;3.17;;;7.40;1.00;;;;;;5137117;27;20823;-65
2023/01/13 08:45:14;;;;;;;13.57;4.30;;;7.40;1.00;;;;;;5136351;27;20482;-64
2023/01/13 08:47:41;;;;;;;9.53;3.20;;;7.40;1.00;;;;;;5134499;27;20758;-64
2023/01/13 08:50:10;;;;;;;9.93;3.13;;;7.50;1.00;;;;;;5136127;27;20463;-64
2023/01/13 08:52:37;;;;;;;9.87;3.50;;;7.40;1.00;;;;;;5119534;27;20463;-64
2023/01/13 08:55:05;;;;;;;10.93;3.20;;;7.40;1.00;;;;;;5137103;27;20894;-64
2023/01/13 08:57:34;;;;;;;16.20;3.40;;;7.50;1.00;;;;;;5136029;27;20459;-64
2023/01/13 09:00:02;;;;;;;12.60;4.03;;;7.50;1.00;;;;;;5138037;27;20871;-64
2023/01/13 09:02:29;;;;;;;14.00;4.00;;;7.50;1.00;;;;;;5132776;27;20635;-63
2023/01/13 09:04:56;;;;;;;9.90;3.30;;;7.50;1.00;;;;;;5138844;27;20934;-63
2023/01/13 09:07:23;;;;;;;12.13;3.17;;;7.50;1.00;;;;;;5136663;27;20459;-64
2023/01/13 09:09:50;;;;;;;14.50;3.63;;;7.50;1.00;;;;;;5131837;27;20922;-64
2023/01/13 09:15:05;;;;;;;10.07;3.70;;;7.50;1.00;;;;;;5137095;27;20438;-64
2023/01/13 09:17:32;;;;;;;7.40;3.27;;;7.50;1.00;;;;;;5137336;27;20455;-63
2023/01/13 09:19:59;;;;;;;8.80;3.47;;;7.60;1.00;;;;;;5136470;27;20819;-63
2023/01/13 09:22:27;;;;;;;11.90;3.60;;;7.60;1.00;;;;;;5136605;27;20469;-63
2023/01/13 09:24:54;;;;;;;27.53;10.33;;;7.50;1.00;;;;;;5138644;27;20909;-63
2023/01/13 09:27:22;;;;;;;13.63;3.90;;;7.60;1.00;;;;;;5138780;27;20459;-64
2023/01/13 09:29:49;;;;;;;12.40;4.00;;;7.50;1.00;;;;;;5136749;27;20457;-64
2023/01/13 09:32:18;;;;;;;13.00;3.97;;;7.60;1.00;;;;;;5138416;27;20463;-63
2023/01/13 09:34:59;;;;;;;9.03;3.17;;;7.60;1.00;;;;;;5135756;27;20429;-64
2023/01/13 09:37:27;;;;;;;24.43;4.30;;;7.60;1.00;;;;;;5128750;27;20459;-63
2023/01/13 09:39:54;;;;;;;11.33;4.30;;;7.60;1.00;;;;;;5137202;27;20455;-63
2023/01/13 09:45:18;;;;;;;14.33;3.60;;;7.60;1.00;;;;;;5135035;27;20481;-64
2023/01/13 09:47:55;;;;;;;15.13;4.90;;;7.60;1.00;;;;;;5136402;27;20509;-64
2023/01/13 09:50:30;;;;;;;10.40;3.50;;;7.60;1.00;;;;;;5137095;27;20486;-62
2023/01/13 09:52:59;;;;;;;10.43;3.37;;;7.60;1.00;;;;;;5137216;27;20433;-64
2023/01/13 09:55:31;;;;;;;10.27;3.43;;;7.70;1.00;;;;;;5135978;27;20515;-64
2023/01/13 09:58:00;;;;;;;13.83;3.90;;;7.70;1.00;;;;;;5136931;27;20463;-61
2023/01/13 10:00:36;;;;;;;13.97;3.27;;;7.70;1.00;;;;;;5128759;27;20470;-61
2023/01/13 10:03:21;;;;;;;15.80;4.07;;;7.70;1.00;;;;;;5133879;27;20451;-62
2023/01/13 10:05:56;;;;;;;10.63;3.33;;;7.70;1.00;;;;;;5136530;27;20486;-63
2023/01/13 10:08:26;;;;;;;17.83;4.67;;;7.80;1.00;;;;;;5126197;27;20515;-63
2023/01/13 10:10:57;;;;;;;9.03;3.50;;;7.80;1.00;;;;;;5134727;27;20458;-63
2023/01/13 10:13:25;;;;;;;16.80;4.13;;;7.90;1.00;;;;;;5136668;27;20887;-61
2023/01/13 10:16:19;;;;;;;12.03;3.87;;;7.90;1.00;;;;;;5136389;27;20497;-63
2023/01/13 10:19:00;;;;;;;11.13;4.40;;;8.00;1.00;;;;;;5126928;28;20476;-61
2023/01/13 10:21:53;;;;;;;12.27;4.70;;;8.00;1.00;;;;;;5135531;28;20897;-64
2023/01/13 10:24:29;;;;;;;11.67;4.20;;;8.10;1.00;;;;;;5138208;27;20454;-60
2023/01/13 10:27:04;;;;;;;11.90;4.33;;;8.10;99.90;;;;;;5139446;27;20468;-62
2023/01/13 10:29:32;;;;;;;8.70;4.60;;;8.10;1.00;;;;;;5131284;27;20526;-63
2023/01/13 10:32:00;;;;;;;22.03;4.50;;;8.10;1.00;;;;;;5139268;27;20491;-60
2023/01/13 10:34:29;;;;;;;18.53;4.67;;;8.10;1.00;;;;;;5133446;27;20464;-62
2023/01/13 10:37:05;;;;;;;15.23;4.43;;;8.10;1.00;;;;;;5121220;27;20971;-61
2023/01/13 10:39:43;;;;;;;12.70;4.50;;;8.10;99.90;;;;;;5138027;27;20540;-64
2023/01/13 10:42:14;;;;;;;13.10;4.03;;;8.20;99.90;;;;;;5121917;27;20738;-60
2023/01/13 10:44:49;;;;;;;17.13;3.80;;;8.30;99.90;;;;;;5138480;27;20489;-61
2023/01/13 10:47:28;;;;;;;14.87;5.77;;;8.30;99.90;;;;;;5137582;27;20790;-63
2023/01/13 10:50:19;;;;;;;16.30;4.47;;;8.30;99.90;;;;;;5140400;27;20433;-60
2023/01/13 10:52:59;;;;;;;22.00;5.07;;;8.30;99.90;;;;;;5136124;27;20429;-62
2023/01/13 10:55:29;;;;;;;10.77;3.90;;;8.20;99.90;;;;;;5139843;27;20461;-62
2023/01/13 10:57:56;;;;;;;15.50;4.47;;;8.30;99.90;;;;;;5139956;27;20461;-62
2023/01/13 11:00:28;;;;;;;12.50;4.07;;;8.30;99.90;;;;;;5128863;27;20462;-62
2023/01/13 11:03:15;;;;;;;15.90;3.50;;;8.30;99.90;;;;;;5141169;27;20450;-63
2023/01/13 11:05:52;;;;;;;13.53;5.00;;;8.30;99.90;;;;;;5140668;27;20482;-62
2023/01/13 11:08:23;;;;;;;15.17;4.20;;;8.30;99.90;;;;;;5139833;27;20817;-63
2023/01/13 11:10:52;;;;;;;19.20;4.80;;;8.40;99.90;;;;;;5141299;27;20889;-63
2023/01/13 11:13:25;;;;;;;8.90;3.00;;;8.50;99.90;;;;;;5138364;27;20466;-64
2023/01/13 11:15:57;;;;;;;12.80;3.83;;;8.50;99.90;;;;;;5141369;27;20451;-62
2023/01/13 11:18:35;;;;;;;18.57;4.50;;;8.50;99.90;;;;;;5139341;27;20455;-62
2023/01/13 11:21:09;;;;;;;10.00;3.50;;;8.60;99.90;;;;;;5139707;27;20462;-61
2023/01/13 11:23:42;;;;;;;15.30;4.27;;;8.60;99.90;;;;;;5129339;27;20460;-64
2023/01/13 11:26:16;;;;;;;18.80;4.00;;;8.60;99.90;;;;;;5141059;27;20497;-63
2023/01/13 11:28:50;;;;;;;22.90;4.60;;;8.60;99.90;;;;;;5139171;27;20462;-61
2023/01/13 11:31:24;;;;;;;12.03;3.27;;;8.70;99.90;;;;;;5131086;27;20488;-63
2023/01/13 11:33:57;;;;;;;19.27;4.20;;;8.70;99.90;;;;;;5136994;27;20437;-64
2023/01/13 11:36:28;;;;;;;11.27;4.30;;;8.60;99.90;;;;;;5133425;27;20459;-61
2023/01/13 11:38:58;;;;;;;17.10;4.70;;;8.60;99.90;;;;;;5137567;27;20910;-62
2023/01/13 11:41:40;;;;;;;19.03;6.07;;;8.60;99.90;;;;;;5139788;27;20458;-62
2023/01/13 11:46:58;;;;;;;13.33;3.83;;;8.60;99.90;;;;;;5136342;27;20486;-63
2023/01/13 11:49:28;;;;;;;12.27;3.80;;;8.50;99.90;;;;;;5138523;27;20429;-63
2023/01/13 11:52:03;;;;;;;13.13;3.57;;;8.50;99.90;;;;;;5128496;27;20781;-63
2023/01/13 11:55:11;;;;;;;16.80;4.50;;;8.40;99.90;;;;;;5138515;27;20454;-63
2023/01/13 11:58:02;;;;;;;16.47;4.03;;;8.50;99.90;;;;;;5137802;27;20478;-63
2023/01/13 12:01:04;;;;;;;17.77;4.50;;;8.50;99.90;;;;;;5139293;27;20745;-63
2023/01/13 12:03:35;;;;;;;10.97;3.67;;;8.30;99.90;;;;;;5108932;27;20478;-63
2023/01/13 12:06:17;;;;;;;16.83;4.70;;;7.90;1.00;;;;;;5121511;27;20495;-64
2023/01/13 12:09:23;;;;;;;17.90;4.73;;;7.90;1.00;;;;;;5140937;27;20458;-66
2023/01/13 12:15:08;;;;;;;16.70;4.40;;;7.80;1.00;;;;;;5127995;27;20458;-64
2023/01/13 12:17:42;;;;;;;9.97;3.70;;;7.80;1.00;;;;;;5122120;27;20455;-65
2023/01/13 12:20:25;;;;;;;15.83;3.53;;;7.80;1.00;;;;;;5139354;27;20470;-64
2023/01/13 12:22:56;;;;;;;17.30;6.00;;;7.70;1.00;;;;;;5139663;27;20465;-64
2023/01/13 12:25:32;;;;;;;24.07;4.97;;;7.60;1.00;;;;;;5136311;27;20475;-64
2023/01/13 12:28:04;;;;;;;16.60;4.00;;;7.60;1.00;;;;;;5139983;27;20460;-65
2023/01/13 12:30:40;;;;;;;10.17;3.40;;;7.60;1.00;;;;;;5137215;27;20486;-65
2023/01/13 12:33:19;;;;;;;16.97;4.43;;;7.60;1.00;;;;;;5138666;27;20469;-66
2023/01/13 12:35:54;;;;;;;12.03;5.70;;;7.60;1.00;;;;;;5137773;27;20768;-65
2023/01/13 12:38:33;;;;;;;15.40;4.20;;;7.70;1.00;;;;;;5140050;27;20458;-65
2023/01/13 12:41:12;;;;;;;15.53;3.73;;;7.70;1.00;;;;;;5139888;27;20459;-64
2023/01/13 12:46:45;;;;;;;11.60;4.70;;;7.80;1.00;;;;;;5131077;27;20498;-64
2023/01/13 12:49:21;;;;;;;18.80;6.97;;;7.80;1.00;;;;;;5121230;27;20464;-64
2023/01/13 12:52:17;;;;;;;9.17;3.60;;;7.80;1.00;;;;;;5139135;27;20760;-64
2023/01/13 12:55:23;;;;;;;10.80;4.93;;;7.80;1.00;;;;;;5139758;27;20720;-64
2023/01/13 12:58:24;;;;;;;10.13;4.90;;;7.90;1.00;;;;;;5138035;27;20463;-65
2023/01/13 13:01:05;;;;;;;16.80;5.27;;;7.90;1.00;;;;;;5096568;28;20472;-64
2023/01/13 13:03:34;;;;;;;14.10;4.83;;;7.80;1.00;;;;;;5119707;27;20528;-65
2023/01/13 13:06:12;;;;;;;8.77;3.27;;;7.60;99.90;;;;;;5137509;27;20486;-66
2023/01/13 13:09:00;;;;;;;14.83;4.30;;;7.60;99.90;;;;;;5116912;28;20466;-67
2023/01/13 13:14:59;;;;;;;9.00;3.63;;;7.70;99.90;;;;;;5117037;28;20434;-66
2023/01/13 13:18:19;;;;;;;7.90;3.93;;;7.60;99.90;;;;;;5090560;27;20449;-66
2023/01/13 13:20:59;;;;;;;13.47;5.80;;;7.60;99.90;;;;;;5137558;27;20498;-65
2023/01/13 13:24:01;;;;;;;12.83;4.50;;;7.60;99.90;;;;;;5138225;27;20716;-66
2023/01/13 13:26:41;;;;;;;10.70;3.50;;;7.60;99.90;;;;;;5136798;27;20488;-66
2023/01/13 13:29:37;;;;;;;11.53;3.90;;;7.50;99.90;;;;;;5116695;27;20438;-66
2023/01/13 13:32:32;;;;;;;8.63;4.40;;;7.40;99.90;;;;;;5115865;28;20456;-65
2023/01/13 13:35:13;;;;;;;8.10;4.87;;;7.40;99.90;;;;;;5115912;28;20766;-65
2023/01/13 13:46:47;;;;;;;8.10;3.27;;;7.40;99.90;;;;;;5116163;28;20478;-64
2023/01/13 13:49:15;;;;;;;11.30;5.33;;;7.40;99.90;;;;;;5125355;27;20477;-64
2023/01/13 13:51:51;;;;;;;11.23;3.70;;;7.30;99.90;;;;;;5135717;27;20463;-65
2023/01/13 13:54:21;;;;;;;8.33;3.47;;;7.20;99.90;;;;;;5135558;27;20964;-64
2023/01/13 13:56:50;;;;;;;17.97;5.30;;;7.20;1.00;;;;;;5135035;27;20454;-64
2023/01/13 13:59:19;;;;;;;22.70;5.53;;;7.30;1.00;;;;;;5134143;27;20463;-64
2023/01/13 14:01:59;;;;;;;12.50;4.20;;;7.20;1.00;;;;;;5136524;27;20465;-64
2023/01/13 14:04:28;;;;;;;8.53;3.50;;;7.20;1.00;;;;;;5136467;27;20945;-64
2023/01/13 14:06:58;;;;;;;6.93;3.67;;;7.20;52.60;;;;;;5136258;27;20490;-62
2023/01/13 14:09:28;;;;;;;17.07;4.80;;;7.20;62.30;;;;;;5131233;27;20506;-65
2023/01/13 14:12:00;;;;;;;13.20;4.27;;;7.20;99.90;;;;;;5115933;28;20533;-66
2023/01/13 14:14:28;;;;;;;10.83;3.97;;;7.20;99.90;;;;;;5116525;28;20440;-67
2023/01/13 14:16:55;;;;;;;14.67;4.70;;;7.20;99.90;;;;;;5116399;28;20422;-64
2023/01/13 14:19:32;;;;;;;12.20;4.20;;;7.20;1.00;;;;;;5116055;28;20743;-66
2023/01/13 14:22:02;;;;;;;10.57;3.87;;;7.20;49.50;;;;;;5136804;27;20459;-66
2023/01/13 14:24:30;;;;;;;11.73;3.87;;;7.20;99.90;;;;;;5136022;28;20879;-65